createdAt,value
2019-04-11T00:01:17.702Z,87.20
2019-04-11T00:03:49.380Z,87.30
2019-04-11T00:06:19.846Z,87.20
2019-04-11T00:08:50.667Z,87.50
2019-04-11T00:11:21.892Z,87.50
2019-04-11T00:13:53.606Z,87.50
2019-04-11T00:16:25.468Z,87.50
2019-04-11T00:18:56.962Z,87.60
2019-04-11T00:21:28.847Z,88.50
2019-04-11T00:24:00.665Z,87.80
2019-04-11T00:26:32.604Z,87.80
2019-04-11T00:29:03.956Z,87.70
2019-04-11T00:31:34.768Z,87.70
2019-04-11T00:34:06.838Z,87.70
2019-04-11T00:36:38.793Z,88.00
2019-04-11T00:39:11.430Z,87.80
2019-04-11T00:41:42.564Z,87.70
2019-04-11T00:44:13.424Z,87.70
2019-04-11T00:46:44.619Z,87.70
2019-04-11T00:49:15.195Z,87.80
2019-04-11T00:51:46.189Z,88.10
2019-04-11T00:54:17.039Z,87.90
2019-04-11T00:56:48.448Z,87.80
2019-04-11T00:59:20.373Z,87.90
2019-04-11T01:01:53.315Z,87.90
2019-04-11T01:04:24.120Z,88.10
2019-04-11T01:06:54.797Z,88.10
2019-04-11T01:09:26.324Z,87.90
2019-04-11T01:11:56.987Z,87.90
2019-04-11T01:14:28.050Z,88.10
2019-04-11T01:16:59.031Z,88.10
2019-04-11T01:19:30.890Z,88.10
2019-04-11T01:22:01.782Z,88.10
2019-04-11T01:24:33.580Z,88.30
2019-04-11T01:27:05.591Z,88.40
2019-04-11T01:29:37.664Z,88.30
2019-04-11T01:32:10.550Z,88.30
2019-04-11T01:34:42.494Z,88.60
2019-04-11T01:37:13.725Z,88.60
2019-04-11T01:39:51.998Z,88.50
2019-04-11T01:42:22.986Z,88.60
2019-04-11T01:44:54.718Z,88.50
2019-04-11T01:47:42.652Z,88.50
2019-04-11T01:50:16.773Z,88.90
2019-04-11T01:52:48.654Z,88.70
2019-04-11T01:55:20.593Z,88.90
2019-04-11T01:57:51.969Z,88.70
2019-04-11T02:00:43.898Z,88.90
2019-04-11T02:03:17.113Z,88.90
2019-04-11T02:05:49.511Z,88.60
2019-04-11T02:08:20.306Z,88.80
2019-04-11T02:10:51.106Z,88.90
2019-04-11T02:13:21.898Z,88.80
2019-04-11T02:15:55.781Z,88.60
2019-04-11T02:18:25.584Z,88.70
2019-04-11T02:20:57.660Z,88.90
2019-04-11T02:23:37.275Z,88.90
2019-04-11T02:26:21.064Z,88.80
2019-04-11T02:28:51.714Z,88.90
2019-04-11T02:31:23.217Z,88.90
2019-04-11T02:33:55.239Z,88.90
2019-04-11T02:36:27.312Z,88.80
2019-04-11T02:39:02.166Z,88.80
2019-04-11T02:41:32.027Z,88.90
2019-04-11T02:44:03.566Z,88.90
2019-04-11T02:46:42.749Z,88.90
2019-04-11T02:49:08.124Z,89.20
2019-04-11T02:51:39.450Z,89.70
2019-04-11T02:54:11.528Z,89.40
2019-04-11T02:56:43.673Z,89.10
2019-04-11T02:59:15.508Z,89.00
2019-04-11T03:01:46.486Z,89.00
2019-04-11T03:04:20.080Z,89.20
2019-04-11T03:06:49.950Z,89.00
2019-04-11T03:09:22.150Z,89.20
2019-04-11T03:11:54.480Z,89.20
2019-04-11T03:14:27.628Z,89.40
2019-04-11T03:17:09.460Z,89.40
2019-04-11T03:19:45.338Z,89.60
2019-04-11T03:22:03.525Z,89.50
2019-04-11T03:24:35.913Z,89.60
2019-04-11T03:27:07.745Z,89.50
2019-04-11T03:29:40.666Z,89.50
2019-04-11T03:32:50.587Z,89.50
2019-04-11T03:35:38.699Z,89.50
2019-04-11T03:37:47.862Z,89.60
2019-04-11T03:40:04.499Z,89.50
2019-04-11T03:42:41.602Z,89.50
2019-04-11T03:45:15.198Z,89.70
2019-04-11T03:47:40.023Z,89.50
2019-04-11T03:50:08.401Z,90.10
2019-04-11T03:52:36.565Z,89.50
2019-04-11T03:55:08.685Z,89.50
2019-04-11T03:57:41.563Z,89.60
2019-04-11T04:00:14.887Z,89.70
2019-04-11T04:02:46.793Z,89.50
2019-04-11T04:05:18.225Z,89.50
2019-04-11T04:07:49.427Z,89.30
2019-04-11T04:10:23.433Z,89.50
2019-04-11T04:12:55.940Z,89.50
2019-04-11T04:15:53.203Z,89.70
2019-04-11T04:18:40.173Z,89.50
2019-04-11T04:21:26.559Z,89.70
2019-04-11T04:23:59.322Z,89.50
2019-04-11T04:26:31.310Z,89.60
2019-04-11T04:29:04.309Z,89.80
2019-04-11T04:31:35.141Z,89.70
2019-04-11T04:34:07.257Z,89.60
2019-04-11T04:36:38.207Z,89.40
2019-04-11T04:39:10.533Z,89.60
2019-04-11T04:41:48.952Z,89.30
2019-04-11T04:44:19.003Z,89.80
2019-04-11T04:47:00.171Z,89.70
2019-04-11T04:49:23.568Z,89.50
2019-04-11T04:51:55.722Z,89.50
2019-04-11T04:54:28.442Z,89.50
2019-04-11T04:57:00.826Z,89.70
2019-04-11T04:59:32.123Z,89.50
2019-04-11T05:02:04.019Z,89.50
2019-04-11T05:04:36.094Z,89.50
2019-04-11T05:07:07.379Z,89.50
2019-04-11T05:09:40.312Z,89.30
2019-04-11T05:12:11.951Z,89.40
2019-04-11T05:14:43.413Z,89.40
2019-04-11T05:17:14.950Z,89.50
2019-04-11T05:19:46.588Z,89.20
2019-04-11T05:22:17.355Z,89.30
2019-04-11T05:24:48.242Z,89.10
2019-04-11T05:27:19.002Z,89.10
2019-04-11T05:29:49.666Z,89.10
2019-04-11T05:32:20.413Z,88.80
2019-04-11T05:34:51.636Z,88.90
2019-04-11T05:37:22.800Z,88.80
2019-04-11T05:39:53.531Z,88.80
2019-04-11T05:42:26.994Z,88.50
2019-04-11T05:44:57.029Z,88.30
2019-04-11T05:47:27.750Z,88.60
2019-04-11T05:50:13.755Z,88.10
2019-04-11T05:52:44.487Z,88.20
2019-04-11T05:55:15.591Z,88.20
2019-04-11T05:57:47.686Z,88.20
2019-04-11T06:00:23.770Z,88.30
2019-04-11T06:03:01.772Z,88.10
2019-04-11T06:05:50.108Z,88.00
2019-04-11T06:08:26.622Z,88.10
2019-04-11T06:11:16.480Z,88.10
2019-04-11T06:14:07.371Z,88.10
2019-04-11T06:16:47.345Z,88.00
2019-04-11T06:19:23.208Z,88.00
2019-04-11T06:21:58.167Z,88.00
2019-04-11T06:25:03.594Z,87.90
2019-04-11T06:27:47.396Z,87.90
2019-04-11T06:30:32.652Z,88.20
2019-04-11T06:33:36.480Z,87.70
2019-04-11T06:36:18.084Z,87.50
2019-04-11T06:39:07.866Z,87.10
2019-04-11T06:42:04.824Z,86.60
2019-04-11T06:44:56.481Z,86.30
2019-04-11T06:48:01.349Z,86.00
2019-04-11T06:50:51.333Z,85.20
2019-04-11T06:53:27.981Z,84.60
2019-04-11T06:56:17.178Z,84.20
2019-04-11T06:58:53.562Z,84.00
2019-04-11T07:01:26.184Z,83.90
2019-04-11T07:04:09.252Z,84.10
2019-04-11T07:06:42.073Z,84.00
2019-04-11T07:09:46.927Z,83.90
2019-04-11T07:12:49.402Z,83.80
2019-04-11T07:15:27.253Z,83.40
2019-04-11T07:18:15.545Z,82.80
2019-04-11T07:20:58.548Z,82.50
2019-04-11T07:23:47.100Z,81.60
2019-04-11T07:26:30.242Z,81.80
2019-04-11T07:29:23.913Z,81.00
2019-04-11T07:32:22.653Z,81.20
2019-04-11T07:35:24.977Z,81.40
2019-04-11T07:37:58.164Z,81.70
2019-04-11T07:40:56.754Z,81.80
2019-04-11T07:43:31.191Z,81.80
2019-04-11T07:46:25.176Z,82.20
2019-04-11T07:48:59.435Z,82.60
2019-04-11T07:51:32.084Z,81.60
2019-04-11T07:54:07.614Z,79.50
2019-04-11T07:56:46.562Z,78.70
2019-04-11T07:59:29.502Z,77.80
2019-04-11T08:02:18.172Z,75.40
2019-04-11T08:05:16.962Z,73.60
2019-04-11T08:07:59.463Z,72.70
2019-04-11T08:10:37.830Z,73.30
2019-04-11T08:13:12.386Z,71.30
2019-04-11T08:16:02.245Z,71.40
2019-04-11T08:18:43.247Z,68.60
2019-04-11T08:21:34.344Z,69.20
2019-04-11T08:24:05.856Z,67.60
2019-04-11T08:26:55.433Z,67.90
2019-04-11T08:29:27.175Z,67.40
2019-04-11T08:32:17.669Z,67.20
2019-04-11T08:34:57.570Z,66.20
2019-04-11T08:37:36.269Z,66.70
2019-04-11T08:40:07.538Z,66.80
2019-04-11T08:42:59.977Z,65.70
2019-04-11T08:45:31.934Z,63.20
2019-04-11T08:48:04.726Z,62.00
2019-04-11T08:50:38.679Z,63.00
2019-04-11T08:53:38.772Z,64.00
2019-04-11T08:56:10.606Z,65.80
2019-04-11T08:59:02.777Z,62.40
2019-04-11T09:01:33.894Z,61.80
2019-04-11T09:04:36.571Z,62.40
2019-04-11T09:07:07.580Z,63.70
2019-04-11T09:09:57.745Z,65.70
2019-04-11T09:12:28.833Z,67.20
2019-04-11T09:15:19.152Z,68.90
2019-04-11T09:17:59.050Z,69.50
2019-04-11T09:20:43.550Z,66.80
2019-04-11T09:23:17.667Z,67.00
2019-04-11T09:26:07.588Z,67.30
2019-04-11T09:28:47.673Z,68.70
2019-04-11T09:31:41.422Z,68.50
2019-04-11T09:34:48.206Z,69.10
2019-04-11T09:37:30.096Z,68.40
2019-04-11T09:40:26.416Z,67.50
2019-04-11T09:43:16.122Z,66.80
2019-04-11T09:46:06.246Z,66.40
2019-04-11T09:49:00.630Z,66.80
2019-04-11T09:51:56.530Z,67.70
2019-04-11T09:54:58.827Z,68.70
2019-04-11T09:57:36.584Z,68.30
2019-04-11T10:00:24.589Z,69.50
2019-04-11T10:03:17.816Z,70.10
2019-04-11T10:05:57.210Z,70.50
2019-04-11T10:08:44.088Z,70.90
2019-04-11T10:11:34.515Z,71.40
2019-04-11T10:14:11.910Z,71.10
2019-04-11T10:17:00.275Z,69.70
2019-04-11T10:19:56.107Z,66.30
2019-04-11T10:22:49.379Z,66.20
2019-04-11T10:25:30.209Z,64.90
2019-04-11T10:28:27.291Z,65.20
2019-04-11T10:31:20.346Z,62.90
2019-04-11T10:34:11.216Z,56.40
2019-04-11T10:36:49.675Z,49.60
2019-04-11T10:39:42.153Z,43.60
2019-04-11T10:42:14.793Z,38.70
2019-04-11T10:45:04.518Z,35.10
2019-04-11T10:47:36.622Z,31.80
2019-04-11T10:50:34.123Z,30.00
2019-04-11T10:53:06.747Z,29.40
2019-04-11T10:55:56.503Z,29.70
2019-04-11T10:58:37.298Z,29.70
2019-04-11T11:01:26.931Z,29.30
2019-04-11T11:04:18.068Z,30.00
2019-04-11T11:06:51.789Z,28.80
2019-04-11T11:09:39.507Z,30.40
2019-04-11T11:12:29.509Z,32.00
2019-04-11T11:15:09.279Z,33.80
2019-04-11T11:21:07.261Z,35.90
2019-04-11T11:23:56.948Z,37.20
2019-04-11T11:26:32.036Z,37.90
2019-04-11T11:29:21.354Z,39.70
2019-04-11T11:31:57.746Z,40.00
2019-04-11T11:34:41.784Z,41.00
2019-04-11T11:37:37.509Z,40.80
2019-04-11T11:40:26.338Z,43.30
2019-04-11T11:43:14.838Z,43.40
2019-04-11T11:46:03.231Z,44.00
2019-04-11T11:48:48.735Z,44.80
2019-04-11T11:51:23.758Z,44.90
2019-04-11T11:54:13.506Z,45.50
2019-04-11T11:56:44.770Z,45.40
2019-04-11T11:59:34.493Z,45.70
2019-04-11T12:02:15.772Z,45.40
2019-04-11T12:04:52.114Z,45.00
2019-04-11T12:07:26.538Z,44.50
2019-04-11T12:10:15.275Z,45.30
2019-04-11T12:13:08.544Z,44.80
2019-04-11T12:15:55.187Z,44.70
2019-04-11T12:18:54.932Z,44.50
2019-04-11T12:21:30.992Z,45.20
2019-04-11T12:24:32.410Z,45.40
2019-04-11T12:27:22.441Z,46.10
2019-04-11T12:30:13.337Z,46.30
2019-04-11T12:33:06.494Z,47.20
2019-04-11T12:36:09.843Z,47.10
2019-04-11T12:39:11.630Z,46.80
2019-04-11T12:42:14.990Z,47.40
2019-04-11T12:45:03.299Z,47.30
2019-04-11T12:47:38.734Z,47.70
2019-04-11T12:50:29.927Z,47.60
2019-04-11T12:53:19.815Z,47.60
2019-04-11T12:56:08.314Z,47.30
2019-04-11T12:58:44.683Z,47.30
2019-04-11T13:01:52.683Z,47.60
2019-04-11T13:04:34.405Z,47.50
2019-04-11T13:07:33.387Z,47.30
2019-04-11T13:10:33.413Z,47.20
2019-04-11T13:13:23.574Z,47.20
2019-04-11T13:16:12.330Z,47.60
2019-04-11T13:19:04.638Z,47.40
2019-04-11T13:21:48.498Z,47.40
2019-04-11T13:24:38.118Z,48.10
2019-04-11T13:27:27.743Z,48.50
2019-04-11T13:30:17.359Z,48.70
2019-04-11T13:32:49.864Z,48.50
2019-04-11T13:35:54.735Z,48.20
2019-04-11T13:38:47.266Z,47.30
2019-04-11T13:41:33.363Z,46.30
2019-04-11T13:44:19.076Z,46.30
2019-04-11T13:47:08.966Z,47.10
2019-04-11T13:49:54.110Z,47.20
2019-04-11T13:52:43.700Z,47.30
2019-04-11T13:55:22.830Z,47.50
2019-04-11T13:58:12.870Z,47.50
2019-04-11T14:00:54.093Z,47.60
2019-04-11T14:03:43.550Z,46.90
2019-04-11T14:06:29.534Z,46.70
2019-04-11T14:09:20.478Z,46.90
2019-04-11T14:11:52.481Z,46.70
2019-04-11T14:14:29.060Z,45.50
2019-04-11T14:17:17.360Z,46.10
2019-04-11T14:20:28.630Z,45.20
2019-04-11T14:23:15.029Z,46.30
2019-04-11T14:26:12.561Z,45.30
2019-04-11T14:28:49.458Z,45.20
2019-04-11T14:31:47.403Z,45.60
2019-04-11T14:34:35.830Z,45.60
2019-04-11T14:37:23.826Z,45.70
2019-04-11T14:39:58.665Z,44.90
2019-04-11T14:42:49.796Z,44.50
2019-04-11T14:45:45.290Z,44.70
2019-04-11T14:48:20.202Z,44.10
2019-04-11T14:51:16.678Z,43.60
2019-04-11T14:54:01.928Z,43.30
2019-04-11T14:56:33.168Z,43.30
2019-04-11T14:59:24.724Z,43.20
2019-04-11T15:02:02.075Z,44.00
2019-04-11T15:05:13.603Z,43.70
2019-04-11T15:07:43.685Z,43.90
2019-04-11T15:10:37.750Z,43.30
2019-04-11T15:13:09.744Z,43.20
2019-04-11T15:16:11.425Z,44.00
2019-04-11T15:18:47.786Z,42.30
2019-04-11T15:21:43.170Z,42.30
2019-04-11T15:24:15.171Z,41.80
2019-04-11T15:27:08.745Z,41.40
2019-04-11T15:29:40.356Z,42.00
2019-04-11T15:32:31.092Z,40.70
2019-04-11T15:35:11.232Z,40.60
2019-04-11T15:37:59.743Z,41.50
2019-04-11T15:40:52.669Z,41.50
2019-04-11T15:43:43.643Z,41.00
2019-04-11T15:46:26.082Z,40.00
2019-04-11T15:49:20.430Z,39.60
2019-04-11T15:51:58.966Z,40.30
2019-04-11T15:54:48.778Z,39.60
2019-04-11T15:57:53.306Z,39.50
2019-04-11T16:00:43.872Z,39.80
2019-04-11T16:03:25.799Z,40.10
2019-04-11T16:06:13.863Z,40.40
2019-04-11T16:09:11.677Z,40.20
2019-04-11T16:12:07.439Z,40.20
2019-04-11T16:14:39.572Z,40.30
2019-04-11T16:17:35.953Z,40.40
2019-04-11T16:20:19.469Z,40.20
2019-04-11T16:23:15.286Z,40.50
2019-04-11T16:25:50.135Z,40.90
2019-04-11T16:28:59.141Z,42.10
2019-04-11T16:31:40.141Z,40.80
2019-04-11T16:34:16.905Z,41.30
2019-04-11T16:36:50.883Z,41.40
2019-04-11T16:39:50.150Z,41.70
2019-04-11T16:42:27.490Z,41.00
2019-04-11T16:45:17.075Z,41.20
2019-04-11T16:48:01.963Z,41.90
2019-04-11T16:50:33.294Z,42.30
2019-04-11T16:53:04.748Z,42.50
2019-04-11T16:55:36.786Z,41.80
2019-04-11T16:58:09.158Z,42.90
2019-04-11T17:00:39.957Z,42.80
2019-04-11T17:03:10.650Z,42.50
2019-04-11T17:05:43.834Z,42.30
2019-04-11T17:08:42.335Z,43.00
2019-04-11T17:11:20.422Z,42.80
2019-04-11T17:13:51.358Z,42.60
2019-04-11T17:16:22.470Z,42.90
2019-04-11T17:18:53.352Z,42.80
2019-04-11T17:21:23.921Z,42.90
2019-04-11T17:23:54.769Z,42.70
2019-04-11T17:26:25.531Z,42.80
2019-04-11T17:28:56.346Z,43.40
2019-04-11T17:31:27.239Z,43.70
2019-04-11T17:34:01.469Z,43.50
2019-04-11T17:36:30.768Z,43.50
2019-04-11T17:39:06.785Z,43.20
2019-04-11T17:41:35.735Z,43.30
2019-04-11T17:44:06.386Z,43.70
2019-04-11T17:46:36.951Z,44.20
2019-04-11T17:49:08.201Z,43.90
2019-04-11T17:51:38.911Z,44.10
2019-04-11T17:54:09.650Z,44.40
2019-04-11T17:56:40.258Z,44.60
2019-04-11T17:59:12.234Z,44.90
2019-04-11T18:01:43.126Z,45.60
2019-04-11T18:04:14.154Z,46.20
2019-04-11T18:06:46.919Z,47.10
2019-04-11T18:09:17.231Z,48.10
2019-04-11T18:11:47.950Z,48.80
2019-04-11T18:14:18.799Z,49.30
2019-04-11T18:16:49.519Z,50.00
2019-04-11T18:19:20.494Z,50.60
2019-04-11T18:21:51.531Z,50.30
2019-04-11T18:24:22.594Z,50.30
2019-04-11T18:26:53.162Z,50.40
2019-04-11T18:29:24.282Z,50.80
2019-04-11T18:31:55.450Z,51.60
2019-04-11T18:34:26.535Z,50.50
2019-04-11T18:36:56.994Z,50.70
2019-04-11T18:39:27.817Z,49.70
2019-04-11T18:41:58.447Z,50.10
2019-04-11T18:44:29.322Z,50.20
2019-04-11T18:47:00.212Z,50.70
2019-04-11T18:49:30.943Z,50.90
2019-04-11T18:52:01.508Z,51.10
2019-04-11T18:54:32.280Z,51.00
2019-04-11T18:57:03.310Z,50.50
2019-04-11T18:59:34.489Z,50.10
2019-04-11T19:02:05.411Z,50.80
2019-04-11T19:04:36.263Z,51.00
2019-04-11T19:07:06.753Z,51.00
2019-04-11T19:09:37.870Z,50.90
2019-04-11T19:12:09.331Z,51.30
2019-04-11T19:14:40.110Z,51.20
2019-04-11T19:17:10.754Z,50.70
2019-04-11T19:19:43.318Z,51.30
2019-04-11T19:22:14.907Z,51.30
2019-04-11T19:24:45.440Z,51.40
2019-04-11T19:27:16.526Z,51.30
2019-04-11T19:29:48.632Z,51.10
2019-04-11T19:32:19.576Z,51.50
2019-04-11T19:34:50.307Z,51.70
2019-04-11T19:37:21.400Z,52.00
2019-04-11T19:39:52.476Z,52.70
2019-04-11T19:42:24.800Z,52.50
2019-04-11T19:44:55.729Z,52.30
2019-04-11T19:47:26.462Z,52.20
2019-04-11T19:49:58.817Z,51.80
2019-04-11T19:52:29.944Z,52.40
2019-04-11T19:55:14.338Z,53.20
2019-04-11T19:57:45.244Z,53.40
2019-04-11T20:00:16.470Z,53.40
2019-04-11T20:02:47.631Z,53.70
2019-04-11T20:05:18.240Z,53.80
2019-04-11T20:07:49.223Z,53.60
2019-04-11T20:10:20.151Z,53.90
2019-04-11T20:12:51.046Z,54.40
2019-04-11T20:15:22.027Z,54.80
2019-04-11T20:17:52.867Z,54.50
2019-04-11T20:20:23.467Z,54.80
2019-04-11T20:22:59.144Z,55.50
2019-04-11T20:25:26.666Z,55.50
2019-04-11T20:27:57.654Z,55.40
2019-04-11T20:30:29.533Z,55.70
2019-04-11T20:33:02.940Z,55.50
2019-04-11T20:35:32.716Z,55.50
2019-04-11T20:38:03.322Z,56.10
2019-04-11T20:40:34.102Z,56.50
2019-04-11T20:43:04.909Z,56.30
2019-04-11T20:45:38.217Z,56.00
2019-04-11T20:48:09.079Z,56.40
2019-04-11T20:50:39.965Z,56.00
2019-04-11T20:53:13.268Z,56.00
2019-04-11T20:55:44.411Z,56.60
2019-04-11T20:58:26.533Z,56.30
2019-04-11T21:00:50.827Z,56.10
2019-04-11T21:03:20.271Z,56.20
2019-04-11T21:05:51.362Z,56.30
2019-04-11T21:08:21.882Z,56.20
2019-04-11T21:10:52.778Z,56.30
2019-04-11T21:13:23.306Z,56.10
2019-04-11T21:15:55.043Z,55.70
2019-04-11T21:18:26.362Z,55.80
2019-04-11T21:20:57.318Z,56.10
2019-04-11T21:23:29.731Z,56.70
2019-04-11T21:26:02.010Z,56.70
2019-04-11T21:28:33.576Z,56.80
2019-04-11T21:31:04.478Z,56.80
2019-04-11T21:33:44.440Z,57.00
2019-04-11T21:36:15.035Z,57.10
2019-04-11T21:38:46.076Z,57.50
2019-04-11T21:41:16.745Z,56.40
2019-04-11T21:43:47.418Z,56.30
2019-04-11T21:46:18.310Z,56.30
2019-04-11T21:48:49.216Z,56.40
2019-04-11T21:51:19.758Z,56.20
2019-04-11T21:53:50.486Z,56.00
2019-04-11T21:56:21.370Z,56.20
2019-04-11T21:58:51.973Z,55.70
2019-04-11T22:01:24.890Z,55.80
2019-04-11T22:03:57.948Z,56.20
2019-04-11T22:06:30.612Z,55.60
2019-04-11T22:09:04.860Z,55.80
2019-04-11T22:11:35.352Z,55.50
2019-04-11T22:14:10.988Z,55.40
2019-04-11T22:16:39.140Z,55.50
2019-04-11T22:19:13.925Z,55.40
2019-04-11T22:21:45.056Z,55.40
2019-04-11T22:24:14.994Z,55.10
2019-04-11T22:26:50.117Z,55.10
2019-04-11T22:29:18.211Z,54.90
2019-04-11T22:31:49.063Z,55.10
2019-04-11T22:34:36.458Z,55.10
2019-04-11T22:37:07.360Z,55.20
2019-04-11T22:39:38.067Z,55.30
2019-04-11T22:42:09.003Z,55.30
2019-04-11T22:44:39.759Z,55.50
2019-04-11T22:47:10.423Z,55.50
2019-04-11T22:49:41.502Z,55.40
2019-04-11T22:52:12.328Z,55.70
2019-04-11T22:54:43.147Z,55.50
2019-04-11T22:57:13.837Z,55.60
2019-04-11T22:59:45.265Z,55.80
2019-04-11T23:02:35.887Z,55.70
2019-04-11T23:05:07.434Z,56.10
2019-04-11T23:07:38.139Z,56.00
2019-04-11T23:10:09.046Z,56.00
2019-04-11T23:12:39.943Z,56.20
2019-04-11T23:15:14.875Z,56.30
2019-04-11T23:17:44.585Z,56.20
2019-04-11T23:20:16.020Z,56.30
2019-04-11T23:22:47.001Z,56.50
2019-04-11T23:25:17.779Z,56.50
2019-04-11T23:27:50.532Z,56.60
2019-04-11T23:30:21.490Z,56.60
2019-04-11T23:32:52.854Z,56.80
2019-04-11T23:35:23.727Z,56.80
2019-04-11T23:37:54.676Z,56.90
2019-04-11T23:40:25.808Z,57.10
2019-04-11T23:42:56.679Z,57.30
2019-04-11T23:45:29.364Z,57.20
2019-04-11T23:48:00.132Z,57.30
2019-04-11T23:50:35.185Z,57.90
2019-04-11T23:53:05.786Z,57.60
2019-04-11T23:55:38.047Z,57.60
2019-04-11T23:58:08.890Z,57.50
